sensor_id;sensor_type;location;lat;lon;timestamp;P1;durP1;ratioP1;P2;durP2;ratioP2
11685;SDS011;5899;51.282;6.094;2023-02-23T00:00:43;52.37;;;34.40;;
11685;SDS011;5899;51.282;6.094;2023-02-23T00:06:01;46.90;;;33.53;;
11685;SDS011;5899;51.282;6.094;2023-02-23T00:08:33;45.72;;;32.97;;
11685;SDS011;5899;51.282;6.094;2023-02-23T00:11:19;44.85;;;30.10;;
11685;SDS011;5899;51.282;6.094;2023-02-23T00:13:54;38.72;;;27.83;;
11685;SDS011;5899;51.282;6.094;2023-02-23T00:16:25;53.73;;;28.07;;
11685;SDS011;5899;51.282;6.094;2023-02-23T00:18:56;39.00;;;25.33;;
11685;SDS011;5899;51.282;6.094;2023-02-23T00:21:42;36.83;;;25.73;;
11685;SDS011;5899;51.282;6.094;2023-02-23T00:24:12;37.50;;;25.67;;
11685;SDS011;5899;51.282;6.094;2023-02-23T00:26:51;37.67;;;26.42;;
11685;SDS011;5899;51.282;6.094;2023-02-23T00:29:19;37.33;;;26.17;;
11685;SDS011;5899;51.282;6.094;2023-02-23T00:31:49;42.05;;;24.35;;
11685;SDS011;5899;51.282;6.094;2023-02-23T00:34:29;34.50;;;24.93;;
11685;SDS011;5899;51.282;6.094;2023-02-23T00:37:05;38.80;;;26.77;;
11685;SDS011;5899;51.282;6.094;2023-02-23T00:39:34;36.72;;;26.27;;
11685;SDS011;5899;51.282;6.094;2023-02-23T00:42:02;32.85;;;24.85;;
11685;SDS011;5899;51.282;6.094;2023-02-23T00:44:30;37.97;;;25.90;;
11685;SDS011;5899;51.282;6.094;2023-02-23T00:47:03;36.05;;;25.80;;
11685;SDS011;5899;51.282;6.094;2023-02-23T00:49:46;34.67;;;24.57;;
11685;SDS011;5899;51.282;6.094;2023-02-23T00:52:16;36.63;;;26.05;;
11685;SDS011;5899;51.282;6.094;2023-02-23T00:54:44;35.22;;;25.40;;
11685;SDS011;5899;51.282;6.094;2023-02-23T01:00:15;38.30;;;26.23;;
11685;SDS011;5899;51.282;6.094;2023-02-23T01:02:47;36.22;;;26.92;;
11685;SDS011;5899;51.282;6.094;2023-02-23T01:05:22;42.15;;;27.05;;
11685;SDS011;5899;51.282;6.094;2023-02-23T01:07:52;38.27;;;26.90;;
11685;SDS011;5899;51.282;6.094;2023-02-23T01:10:21;36.13;;;26.08;;
11685;SDS011;5899;51.282;6.094;2023-02-23T01:12:55;40.13;;;27.52;;
11685;SDS011;5899;51.282;6.094;2023-02-23T01:15:31;36.50;;;25.50;;
11685;SDS011;5899;51.282;6.094;2023-02-23T01:18:02;38.92;;;26.70;;
11685;SDS011;5899;51.282;6.094;2023-02-23T01:20:41;38.77;;;26.23;;
11685;SDS011;5899;51.282;6.094;2023-02-23T01:23:16;36.97;;;26.38;;
11685;SDS011;5899;51.282;6.094;2023-02-23T01:25:47;35.30;;;25.08;;
11685;SDS011;5899;51.282;6.094;2023-02-23T01:28:20;41.33;;;26.80;;
11685;SDS011;5899;51.282;6.094;2023-02-23T01:30:53;40.38;;;25.92;;
11685;SDS011;5899;51.282;6.094;2023-02-23T01:33:20;36.45;;;26.33;;
11685;SDS011;5899;51.282;6.094;2023-02-23T01:35:58;40.03;;;27.17;;
11685;SDS011;5899;51.282;6.094;2023-02-23T01:38:36;38.58;;;26.63;;
11685;SDS011;5899;51.282;6.094;2023-02-23T01:41:02;43.30;;;28.57;;
11685;SDS011;5899;51.282;6.094;2023-02-23T01:43:33;39.50;;;27.45;;
11685;SDS011;5899;51.282;6.094;2023-02-23T01:46:01;37.83;;;27.20;;
11685;SDS011;5899;51.282;6.094;2023-02-23T01:48:34;34.65;;;25.80;;
11685;SDS011;5899;51.282;6.094;2023-02-23T01:51:03;38.88;;;26.80;;
11685;SDS011;5899;51.282;6.094;2023-02-23T01:53:37;41.13;;;27.00;;
11685;SDS011;5899;51.282;6.094;2023-02-23T01:56:08;37.63;;;26.08;;
11685;SDS011;5899;51.282;6.094;2023-02-23T01:58:40;37.72;;;26.88;;
11685;SDS011;5899;51.282;6.094;2023-02-23T02:01:48;34.92;;;25.42;;
11685;SDS011;5899;51.282;6.094;2023-02-23T02:04:02;38.20;;;27.35;;
11685;SDS011;5899;51.282;6.094;2023-02-23T02:06:31;41.55;;;27.80;;
11685;SDS011;5899;51.282;6.094;2023-02-23T02:09:00;38.13;;;26.30;;
11685;SDS011;5899;51.282;6.094;2023-02-23T02:14:19;38.42;;;25.95;;
11685;SDS011;5899;51.282;6.094;2023-02-23T02:17:30;38.70;;;27.20;;
11685;SDS011;5899;51.282;6.094;2023-02-23T02:25:52;38.50;;;27.38;;
11685;SDS011;5899;51.282;6.094;2023-02-23T02:31:17;41.10;;;26.52;;
11685;SDS011;5899;51.282;6.094;2023-02-23T02:34:12;40.35;;;28.05;;
11685;SDS011;5899;51.282;6.094;2023-02-23T02:36:48;37.90;;;26.13;;
11685;SDS011;5899;51.282;6.094;2023-02-23T02:39:35;36.25;;;26.33;;
11685;SDS011;5899;51.282;6.094;2023-02-23T02:42:07;39.92;;;27.65;;
11685;SDS011;5899;51.282;6.094;2023-02-23T02:44:40;39.13;;;26.92;;
11685;SDS011;5899;51.282;6.094;2023-02-23T02:47:15;36.17;;;26.00;;
11685;SDS011;5899;51.282;6.094;2023-02-23T02:49:53;39.67;;;26.15;;
11685;SDS011;5899;51.282;6.094;2023-02-23T02:52:27;38.30;;;26.47;;
11685;SDS011;5899;51.282;6.094;2023-02-23T02:55:05;42.47;;;26.90;;
11685;SDS011;5899;51.282;6.094;2023-02-23T02:57:41;38.15;;;27.02;;
11685;SDS011;5899;51.282;6.094;2023-02-23T03:00:14;37.63;;;26.50;;
11685;SDS011;5899;51.282;6.094;2023-02-23T03:03:01;40.47;;;26.65;;
11685;SDS011;5899;51.282;6.094;2023-02-23T03:05:46;39.55;;;27.23;;
11685;SDS011;5899;51.282;6.094;2023-02-23T03:08:35;34.25;;;25.90;;
11685;SDS011;5899;51.282;6.094;2023-02-23T03:11:20;38.28;;;25.63;;
11685;SDS011;5899;51.282;6.094;2023-02-23T03:14:11;35.70;;;25.80;;
11685;SDS011;5899;51.282;6.094;2023-02-23T03:17:03;35.30;;;25.08;;
11685;SDS011;5899;51.282;6.094;2023-02-23T03:19:52;35.70;;;26.40;;
11685;SDS011;5899;51.282;6.094;2023-02-23T03:22:39;35.42;;;24.42;;
11685;SDS011;5899;51.282;6.094;2023-02-23T03:25:30;38.03;;;26.83;;
11685;SDS011;5899;51.282;6.094;2023-02-23T03:28:16;38.60;;;27.15;;
11685;SDS011;5899;51.282;6.094;2023-02-23T03:31:05;38.40;;;26.65;;
11685;SDS011;5899;51.282;6.094;2023-02-23T03:33:57;39.78;;;26.67;;
11685;SDS011;5899;51.282;6.094;2023-02-23T03:36:52;38.27;;;27.33;;
11685;SDS011;5899;51.282;6.094;2023-02-23T03:39:50;36.17;;;25.83;;
11685;SDS011;5899;51.282;6.094;2023-02-23T03:42:42;37.50;;;25.92;;
11685;SDS011;5899;51.282;6.094;2023-02-23T03:45:29;39.00;;;26.77;;
11685;SDS011;5899;51.282;6.094;2023-02-23T03:48:14;40.40;;;26.87;;
11685;SDS011;5899;51.282;6.094;2023-02-23T03:51:04;37.77;;;26.57;;
11685;SDS011;5899;51.282;6.094;2023-02-23T03:53:49;38.55;;;27.45;;
11685;SDS011;5899;51.282;6.094;2023-02-23T03:56:49;39.33;;;27.10;;
11685;SDS011;5899;51.282;6.094;2023-02-23T03:59:37;38.33;;;26.63;;
11685;SDS011;5899;51.282;6.094;2023-02-23T04:02:25;37.47;;;26.80;;
11685;SDS011;5899;51.282;6.094;2023-02-23T04:05:10;38.05;;;27.25;;
11685;SDS011;5899;51.282;6.094;2023-02-23T04:08:08;36.17;;;27.02;;
11685;SDS011;5899;51.282;6.094;2023-02-23T04:10:56;36.00;;;25.73;;
11685;SDS011;5899;51.282;6.094;2023-02-23T04:13:41;39.58;;;26.80;;
11685;SDS011;5899;51.282;6.094;2023-02-23T04:16:16;39.10;;;27.23;;
11685;SDS011;5899;51.282;6.094;2023-02-23T04:18:44;37.58;;;26.92;;
11685;SDS011;5899;51.282;6.094;2023-02-23T04:21:25;37.60;;;27.55;;
11685;SDS011;5899;51.282;6.094;2023-02-23T04:23:51;35.67;;;26.52;;
11685;SDS011;5899;51.282;6.094;2023-02-23T04:26:21;38.90;;;26.30;;
11685;SDS011;5899;51.282;6.094;2023-02-23T04:29:07;35.93;;;26.10;;
11685;SDS011;5899;51.282;6.094;2023-02-23T04:31:38;39.55;;;27.95;;
11685;SDS011;5899;51.282;6.094;2023-02-23T04:34:07;39.47;;;28.08;;
11685;SDS011;5899;51.282;6.094;2023-02-23T04:36:42;36.88;;;27.65;;
11685;SDS011;5899;51.282;6.094;2023-02-23T04:39:27;37.53;;;27.55;;
11685;SDS011;5899;51.282;6.094;2023-02-23T04:41:56;36.40;;;26.60;;
11685;SDS011;5899;51.282;6.094;2023-02-23T04:44:36;39.05;;;27.85;;
11685;SDS011;5899;51.282;6.094;2023-02-23T04:47:08;38.30;;;27.27;;
11685;SDS011;5899;51.282;6.094;2023-02-23T04:49:41;35.63;;;26.40;;
11685;SDS011;5899;51.282;6.094;2023-02-23T04:52:08;36.78;;;25.92;;
11685;SDS011;5899;51.282;6.094;2023-02-23T04:54:36;34.42;;;27.08;;
11685;SDS011;5899;51.282;6.094;2023-02-23T04:57:12;36.47;;;26.67;;
11685;SDS011;5899;51.282;6.094;2023-02-23T04:59:39;34.13;;;25.73;;
11685;SDS011;5899;51.282;6.094;2023-02-23T05:02:13;37.22;;;26.27;;
11685;SDS011;5899;51.282;6.094;2023-02-23T05:04:42;38.40;;;26.38;;
11685;SDS011;5899;51.282;6.094;2023-02-23T05:07:25;36.08;;;26.30;;
11685;SDS011;5899;51.282;6.094;2023-02-23T05:10:16;31.00;;;22.92;;
11685;SDS011;5899;51.282;6.094;2023-02-23T05:12:48;34.20;;;25.67;;
11685;SDS011;5899;51.282;6.094;2023-02-23T05:15:17;36.92;;;25.60;;
11685;SDS011;5899;51.282;6.094;2023-02-23T05:17:46;35.90;;;26.37;;
11685;SDS011;5899;51.282;6.094;2023-02-23T05:20:15;40.75;;;28.10;;
11685;SDS011;5899;51.282;6.094;2023-02-23T05:22:44;41.88;;;26.40;;
11685;SDS011;5899;51.282;6.094;2023-02-23T05:25:11;43.00;;;26.67;;
11685;SDS011;5899;51.282;6.094;2023-02-23T05:27:58;40.58;;;26.33;;
11685;SDS011;5899;51.282;6.094;2023-02-23T05:30:29;40.28;;;26.27;;
11685;SDS011;5899;51.282;6.094;2023-02-23T05:33:00;43.33;;;27.40;;
11685;SDS011;5899;51.282;6.094;2023-02-23T05:35:26;40.70;;;25.67;;
11685;SDS011;5899;51.282;6.094;2023-02-23T05:37:59;41.10;;;26.35;;
11685;SDS011;5899;51.282;6.094;2023-02-23T05:40:35;40.30;;;25.30;;
11685;SDS011;5899;51.282;6.094;2023-02-23T05:43:01;39.97;;;25.65;;
11685;SDS011;5899;51.282;6.094;2023-02-23T05:45:33;46.70;;;26.43;;
11685;SDS011;5899;51.282;6.094;2023-02-23T05:48:01;43.05;;;26.00;;
11685;SDS011;5899;51.282;6.094;2023-02-23T05:50:27;46.50;;;27.20;;
11685;SDS011;5899;51.282;6.094;2023-02-23T05:52:59;44.95;;;27.20;;
11685;SDS011;5899;51.282;6.094;2023-02-23T05:55:26;44.53;;;25.47;;
11685;SDS011;5899;51.282;6.094;2023-02-23T05:57:53;46.88;;;27.55;;
11685;SDS011;5899;51.282;6.094;2023-02-23T06:00:22;45.05;;;26.27;;
11685;SDS011;5899;51.282;6.094;2023-02-23T06:02:51;51.70;;;28.60;;
11685;SDS011;5899;51.282;6.094;2023-02-23T06:05:31;52.15;;;29.77;;
11685;SDS011;5899;51.282;6.094;2023-02-23T06:08:00;50.22;;;29.23;;
11685;SDS011;5899;51.282;6.094;2023-02-23T06:10:31;57.35;;;30.77;;
11685;SDS011;5899;51.282;6.094;2023-02-23T06:13:02;55.93;;;29.83;;
11685;SDS011;5899;51.282;6.094;2023-02-23T06:15:31;63.97;;;31.55;;
11685;SDS011;5899;51.282;6.094;2023-02-23T06:18:08;63.22;;;31.73;;
11685;SDS011;5899;51.282;6.094;2023-02-23T06:20:41;57.95;;;32.28;;
11685;SDS011;5899;51.282;6.094;2023-02-23T06:23:16;64.95;;;30.73;;
11685;SDS011;5899;51.282;6.094;2023-02-23T06:25:43;60.60;;;30.87;;
11685;SDS011;5899;51.282;6.094;2023-02-23T06:28:09;61.35;;;31.15;;
11685;SDS011;5899;51.282;6.094;2023-02-23T06:30:36;59.75;;;30.25;;
11685;SDS011;5899;51.282;6.094;2023-02-23T06:33:03;67.47;;;33.47;;
11685;SDS011;5899;51.282;6.094;2023-02-23T06:35:30;62.10;;;31.77;;
11685;SDS011;5899;51.282;6.094;2023-02-23T06:38:00;70.93;;;32.50;;
11685;SDS011;5899;51.282;6.094;2023-02-23T06:40:27;70.35;;;33.92;;
11685;SDS011;5899;51.282;6.094;2023-02-23T06:43:02;70.37;;;32.87;;
11685;SDS011;5899;51.282;6.094;2023-02-23T06:45:29;66.95;;;32.80;;
11685;SDS011;5899;51.282;6.094;2023-02-23T06:47:56;65.47;;;31.90;;
11685;SDS011;5899;51.282;6.094;2023-02-23T06:50:27;64.55;;;31.70;;
11685;SDS011;5899;51.282;6.094;2023-02-23T06:52:55;68.87;;;32.97;;
11685;SDS011;5899;51.282;6.094;2023-02-23T06:55:24;63.63;;;32.00;;
11685;SDS011;5899;51.282;6.094;2023-02-23T06:57:51;62.03;;;32.03;;
11685;SDS011;5899;51.282;6.094;2023-02-23T07:00:25;73.78;;;33.70;;
11685;SDS011;5899;51.282;6.094;2023-02-23T07:02:57;66.75;;;32.20;;
11685;SDS011;5899;51.282;6.094;2023-02-23T07:05:34;72.50;;;33.80;;
11685;SDS011;5899;51.282;6.094;2023-02-23T07:08:05;68.70;;;34.85;;
11685;SDS011;5899;51.282;6.094;2023-02-23T07:10:35;67.57;;;32.50;;
11685;SDS011;5899;51.282;6.094;2023-02-23T07:13:02;66.07;;;32.25;;
11685;SDS011;5899;51.282;6.094;2023-02-23T07:15:30;69.25;;;32.35;;
11685;SDS011;5899;51.282;6.094;2023-02-23T07:17:59;69.28;;;32.75;;
11685;SDS011;5899;51.282;6.094;2023-02-23T07:20:28;69.93;;;33.13;;
11685;SDS011;5899;51.282;6.094;2023-02-23T07:23:00;70.30;;;33.20;;
11685;SDS011;5899;51.282;6.094;2023-02-23T07:25:27;69.65;;;34.08;;
11685;SDS011;5899;51.282;6.094;2023-02-23T07:27:56;66.72;;;33.17;;
11685;SDS011;5899;51.282;6.094;2023-02-23T07:30:24;65.57;;;33.33;;
11685;SDS011;5899;51.282;6.094;2023-02-23T07:32:50;71.22;;;33.35;;
11685;SDS011;5899;51.282;6.094;2023-02-23T07:35:17;67.63;;;34.33;;
11685;SDS011;5899;51.282;6.094;2023-02-23T07:37:44;71.22;;;34.92;;
11685;SDS011;5899;51.282;6.094;2023-02-23T07:40:11;65.68;;;32.25;;
11685;SDS011;5899;51.282;6.094;2023-02-23T07:42:38;63.85;;;32.42;;
11685;SDS011;5899;51.282;6.094;2023-02-23T07:45:10;67.18;;;33.72;;
11685;SDS011;5899;51.282;6.094;2023-02-23T07:47:37;65.78;;;32.35;;
11685;SDS011;5899;51.282;6.094;2023-02-23T07:50:07;62.65;;;31.88;;
11685;SDS011;5899;51.282;6.094;2023-02-23T07:52:36;63.28;;;32.72;;
11685;SDS011;5899;51.282;6.094;2023-02-23T07:55:03;62.55;;;32.40;;
11685;SDS011;5899;51.282;6.094;2023-02-23T07:57:31;58.80;;;31.35;;
11685;SDS011;5899;51.282;6.094;2023-02-23T07:59:59;69.70;;;32.65;;
11685;SDS011;5899;51.282;6.094;2023-02-23T08:02:27;60.63;;;32.10;;
11685;SDS011;5899;51.282;6.094;2023-02-23T08:04:58;61.97;;;33.08;;
11685;SDS011;5899;51.282;6.094;2023-02-23T08:07:33;64.00;;;32.00;;
11685;SDS011;5899;51.282;6.094;2023-02-23T08:10:01;65.05;;;33.35;;
11685;SDS011;5899;51.282;6.094;2023-02-23T08:12:30;63.00;;;32.42;;
11685;SDS011;5899;51.282;6.094;2023-02-23T08:14:59;61.17;;;31.45;;
11685;SDS011;5899;51.282;6.094;2023-02-23T08:17:25;64.13;;;34.15;;
11685;SDS011;5899;51.282;6.094;2023-02-23T08:19:53;65.50;;;31.33;;
11685;SDS011;5899;51.282;6.094;2023-02-23T08:22:20;69.82;;;33.78;;
11685;SDS011;5899;51.282;6.094;2023-02-23T08:24:48;68.60;;;33.20;;
11685;SDS011;5899;51.282;6.094;2023-02-23T08:27:15;64.90;;;32.83;;
11685;SDS011;5899;51.282;6.094;2023-02-23T08:29:47;61.92;;;32.20;;
11685;SDS011;5899;51.282;6.094;2023-02-23T08:32:30;59.78;;;32.30;;
11685;SDS011;5899;51.282;6.094;2023-02-23T08:35:00;61.25;;;32.80;;
11685;SDS011;5899;51.282;6.094;2023-02-23T08:37:33;57.75;;;30.50;;
11685;SDS011;5899;51.282;6.094;2023-02-23T08:40:00;58.00;;;31.25;;
11685;SDS011;5899;51.282;6.094;2023-02-23T08:42:29;59.70;;;28.88;;
11685;SDS011;5899;51.282;6.094;2023-02-23T08:44:58;58.42;;;29.65;;
11685;SDS011;5899;51.282;6.094;2023-02-23T08:47:27;61.90;;;31.42;;
11685;SDS011;5899;51.282;6.094;2023-02-23T08:49:56;61.17;;;30.73;;
11685;SDS011;5899;51.282;6.094;2023-02-23T08:52:27;55.22;;;30.02;;
11685;SDS011;5899;51.282;6.094;2023-02-23T08:54:55;57.95;;;29.63;;
11685;SDS011;5899;51.282;6.094;2023-02-23T08:57:29;58.30;;;30.33;;
11685;SDS011;5899;51.282;6.094;2023-02-23T08:59:57;58.22;;;29.88;;
11685;SDS011;5899;51.282;6.094;2023-02-23T09:02:25;54.55;;;29.38;;
11685;SDS011;5899;51.282;6.094;2023-02-23T09:04:52;54.13;;;28.42;;
11685;SDS011;5899;51.282;6.094;2023-02-23T09:07:21;51.83;;;29.08;;
11685;SDS011;5899;51.282;6.094;2023-02-23T09:09:56;54.33;;;28.73;;
11685;SDS011;5899;51.282;6.094;2023-02-23T09:12:22;54.67;;;29.30;;
11685;SDS011;5899;51.282;6.094;2023-02-23T09:14:51;56.83;;;29.52;;
11685;SDS011;5899;51.282;6.094;2023-02-23T09:17:18;60.38;;;29.27;;
11685;SDS011;5899;51.282;6.094;2023-02-23T09:19:44;54.75;;;28.75;;
11685;SDS011;5899;51.282;6.094;2023-02-23T09:22:13;58.97;;;29.95;;
11685;SDS011;5899;51.282;6.094;2023-02-23T09:24:42;51.83;;;27.15;;
11685;SDS011;5899;51.282;6.094;2023-02-23T09:27:10;52.05;;;28.58;;
11685;SDS011;5899;51.282;6.094;2023-02-23T09:29:37;51.25;;;26.83;;
11685;SDS011;5899;51.282;6.094;2023-02-23T09:32:05;51.13;;;27.42;;
11685;SDS011;5899;51.282;6.094;2023-02-23T09:34:32;47.80;;;26.80;;
11685;SDS011;5899;51.282;6.094;2023-02-23T09:36:59;46.30;;;25.95;;
11685;SDS011;5899;51.282;6.094;2023-02-23T09:39:27;52.63;;;27.73;;
11685;SDS011;5899;51.282;6.094;2023-02-23T09:41:59;51.87;;;27.73;;
11685;SDS011;5899;51.282;6.094;2023-02-23T09:44:45;49.45;;;27.17;;
11685;SDS011;5899;51.282;6.094;2023-02-23T09:47:20;50.00;;;26.53;;
11685;SDS011;5899;51.282;6.094;2023-02-23T09:49:55;50.30;;;26.60;;
11685;SDS011;5899;51.282;6.094;2023-02-23T09:52:25;50.38;;;27.52;;
11685;SDS011;5899;51.282;6.094;2023-02-23T09:54:56;46.33;;;25.20;;
11685;SDS011;5899;51.282;6.094;2023-02-23T09:57:32;52.97;;;25.83;;
11685;SDS011;5899;51.282;6.094;2023-02-23T10:00:11;47.97;;;26.23;;
11685;SDS011;5899;51.282;6.094;2023-02-23T10:02:39;43.33;;;23.45;;
11685;SDS011;5899;51.282;6.094;2023-02-23T10:05:21;41.60;;;21.88;;
11685;SDS011;5899;51.282;6.094;2023-02-23T10:07:55;37.80;;;21.23;;
11685;SDS011;5899;51.282;6.094;2023-02-23T10:10:27;35.03;;;19.88;;
11685;SDS011;5899;51.282;6.094;2023-02-23T10:13:00;38.05;;;20.08;;
11685;SDS011;5899;51.282;6.094;2023-02-23T10:15:36;36.20;;;20.15;;
11685;SDS011;5899;51.282;6.094;2023-02-23T10:18:13;35.42;;;19.40;;
11685;SDS011;5899;51.282;6.094;2023-02-23T10:20:47;33.22;;;18.25;;
11685;SDS011;5899;51.282;6.094;2023-02-23T10:23:17;30.98;;;18.52;;
11685;SDS011;5899;51.282;6.094;2023-02-23T10:26:01;30.83;;;17.77;;
11685;SDS011;5899;51.282;6.094;2023-02-23T10:28:33;30.97;;;18.00;;
11685;SDS011;5899;51.282;6.094;2023-02-23T10:31:13;31.73;;;18.45;;
11685;SDS011;5899;51.282;6.094;2023-02-23T10:33:48;29.92;;;16.92;;
11685;SDS011;5899;51.282;6.094;2023-02-23T10:36:18;29.00;;;16.55;;
11685;SDS011;5899;51.282;6.094;2023-02-23T10:39:04;31.50;;;17.80;;
11685;SDS011;5899;51.282;6.094;2023-02-23T10:41:35;32.38;;;18.10;;
11685;SDS011;5899;51.282;6.094;2023-02-23T10:44:03;28.77;;;16.92;;
11685;SDS011;5899;51.282;6.094;2023-02-23T10:46:36;29.52;;;17.67;;
11685;SDS011;5899;51.282;6.094;2023-02-23T10:49:05;26.42;;;15.98;;
11685;SDS011;5899;51.282;6.094;2023-02-23T10:51:35;27.92;;;14.85;;
11685;SDS011;5899;51.282;6.094;2023-02-23T10:56:48;24.73;;;14.38;;
11685;SDS011;5899;51.282;6.094;2023-02-23T10:59:18;23.55;;;13.50;;
11685;SDS011;5899;51.282;6.094;2023-02-23T11:01:49;25.55;;;14.38;;
11685;SDS011;5899;51.282;6.094;2023-02-23T11:04:21;27.63;;;15.47;;
11685;SDS011;5899;51.282;6.094;2023-02-23T11:07:05;26.60;;;15.25;;
11685;SDS011;5899;51.282;6.094;2023-02-23T11:09:34;26.30;;;15.65;;
11685;SDS011;5899;51.282;6.094;2023-02-23T11:12:02;27.20;;;15.47;;
11685;SDS011;5899;51.282;6.094;2023-02-23T11:14:31;27.60;;;15.98;;
11685;SDS011;5899;51.282;6.094;2023-02-23T11:17:20;27.45;;;16.17;;
11685;SDS011;5899;51.282;6.094;2023-02-23T11:19:48;25.70;;;15.73;;
11685;SDS011;5899;51.282;6.094;2023-02-23T11:22:17;23.30;;;14.27;;
11685;SDS011;5899;51.282;6.094;2023-02-23T11:24:50;25.20;;;14.65;;
11685;SDS011;5899;51.282;6.094;2023-02-23T11:27:17;26.00;;;15.15;;
11685;SDS011;5899;51.282;6.094;2023-02-23T11:29:45;23.50;;;15.03;;
11685;SDS011;5899;51.282;6.094;2023-02-23T11:32:14;25.30;;;14.70;;
11685;SDS011;5899;51.282;6.094;2023-02-23T11:34:43;25.98;;;14.68;;
11685;SDS011;5899;51.282;6.094;2023-02-23T11:37:20;26.70;;;15.07;;
11685;SDS011;5899;51.282;6.094;2023-02-23T11:39:51;24.55;;;15.07;;
11685;SDS011;5899;51.282;6.094;2023-02-23T11:42:18;23.63;;;14.50;;
11685;SDS011;5899;51.282;6.094;2023-02-23T11:45:01;20.63;;;13.30;;
11685;SDS011;5899;51.282;6.094;2023-02-23T11:47:32;22.75;;;14.07;;
11685;SDS011;5899;51.282;6.094;2023-02-23T11:50:00;32.00;;;14.35;;
11685;SDS011;5899;51.282;6.094;2023-02-23T11:52:28;24.40;;;13.80;;
11685;SDS011;5899;51.282;6.094;2023-02-23T11:54:56;28.47;;;14.40;;
11685;SDS011;5899;51.282;6.094;2023-02-23T11:57:24;29.80;;;15.23;;
11685;SDS011;5899;51.282;6.094;2023-02-23T11:59:53;20.27;;;12.35;;
11685;SDS011;5899;51.282;6.094;2023-02-23T12:02:22;18.93;;;12.47;;
11685;SDS011;5899;51.282;6.094;2023-02-23T12:04:53;19.23;;;12.02;;
11685;SDS011;5899;51.282;6.094;2023-02-23T12:07:32;18.88;;;11.40;;
11685;SDS011;5899;51.282;6.094;2023-02-23T12:10:04;18.83;;;11.60;;
11685;SDS011;5899;51.282;6.094;2023-02-23T12:12:34;18.27;;;11.50;;
11685;SDS011;5899;51.282;6.094;2023-02-23T12:15:05;20.40;;;11.98;;
11685;SDS011;5899;51.282;6.094;2023-02-23T12:17:39;18.48;;;11.98;;
11685;SDS011;5899;51.282;6.094;2023-02-23T12:20:11;17.67;;;10.88;;
11685;SDS011;5899;51.282;6.094;2023-02-23T12:22:42;15.27;;;9.70;;
11685;SDS011;5899;51.282;6.094;2023-02-23T12:25:14;17.83;;;10.65;;
11685;SDS011;5899;51.282;6.094;2023-02-23T12:27:45;16.58;;;10.27;;
11685;SDS011;5899;51.282;6.094;2023-02-23T12:30:17;17.02;;;10.45;;
11685;SDS011;5899;51.282;6.094;2023-02-23T12:32:46;16.42;;;10.48;;
11685;SDS011;5899;51.282;6.094;2023-02-23T12:35:20;17.85;;;11.07;;
11685;SDS011;5899;51.282;6.094;2023-02-23T12:37:59;19.87;;;12.00;;
11685;SDS011;5899;51.282;6.094;2023-02-23T12:40:27;19.55;;;12.55;;
11685;SDS011;5899;51.282;6.094;2023-02-23T12:42:57;19.60;;;12.77;;
11685;SDS011;5899;51.282;6.094;2023-02-23T12:45:27;21.65;;;13.35;;
11685;SDS011;5899;51.282;6.094;2023-02-23T12:47:58;19.80;;;12.40;;
11685;SDS011;5899;51.282;6.094;2023-02-23T12:50:30;20.42;;;12.98;;
11685;SDS011;5899;51.282;6.094;2023-02-23T12:52:59;20.23;;;12.48;;
11685;SDS011;5899;51.282;6.094;2023-02-23T12:55:29;24.17;;;14.30;;
11685;SDS011;5899;51.282;6.094;2023-02-23T12:58:09;22.10;;;13.93;;
11685;SDS011;5899;51.282;6.094;2023-02-23T13:00:44;20.38;;;13.57;;
11685;SDS011;5899;51.282;6.094;2023-02-23T13:06:03;21.48;;;13.85;;
11685;SDS011;5899;51.282;6.094;2023-02-23T13:08:38;22.75;;;13.73;;
11685;SDS011;5899;51.282;6.094;2023-02-23T13:11:13;22.65;;;14.20;;
11685;SDS011;5899;51.282;6.094;2023-02-23T13:13:43;22.98;;;13.65;;
11685;SDS011;5899;51.282;6.094;2023-02-23T13:16:16;23.70;;;15.10;;
11685;SDS011;5899;51.282;6.094;2023-02-23T13:18:45;21.40;;;13.93;;
11685;SDS011;5899;51.282;6.094;2023-02-23T13:21:16;23.63;;;14.90;;
11685;SDS011;5899;51.282;6.094;2023-02-23T13:23:52;24.55;;;15.02;;
11685;SDS011;5899;51.282;6.094;2023-02-23T13:26:21;24.05;;;14.77;;
11685;SDS011;5899;51.282;6.094;2023-02-23T13:28:53;23.08;;;15.48;;
11685;SDS011;5899;51.282;6.094;2023-02-23T13:31:22;26.55;;;15.65;;
11685;SDS011;5899;51.282;6.094;2023-02-23T13:33:49;24.63;;;14.90;;
11685;SDS011;5899;51.282;6.094;2023-02-23T13:36:20;27.45;;;16.23;;
11685;SDS011;5899;51.282;6.094;2023-02-23T13:38:51;26.50;;;16.08;;
11685;SDS011;5899;51.282;6.094;2023-02-23T13:41:26;26.17;;;16.15;;
11685;SDS011;5899;51.282;6.094;2023-02-23T13:44:13;27.38;;;16.17;;
11685;SDS011;5899;51.282;6.094;2023-02-23T13:46:43;26.52;;;16.65;;
11685;SDS011;5899;51.282;6.094;2023-02-23T13:49:18;27.80;;;17.27;;
11685;SDS011;5899;51.282;6.094;2023-02-23T13:51:50;26.88;;;16.55;;
11685;SDS011;5899;51.282;6.094;2023-02-23T13:54:23;28.33;;;16.73;;
11685;SDS011;5899;51.282;6.094;2023-02-23T13:56:54;30.30;;;17.38;;
11685;SDS011;5899;51.282;6.094;2023-02-23T13:59:21;30.60;;;18.42;;
11685;SDS011;5899;51.282;6.094;2023-02-23T14:01:53;28.42;;;18.23;;
11685;SDS011;5899;51.282;6.094;2023-02-23T14:04:23;28.15;;;17.33;;
11685;SDS011;5899;51.282;6.094;2023-02-23T14:06:56;28.97;;;18.20;;
11685;SDS011;5899;51.282;6.094;2023-02-23T14:09:27;35.05;;;18.98;;
11685;SDS011;5899;51.282;6.094;2023-02-23T14:12:03;30.52;;;16.90;;
11685;SDS011;5899;51.282;6.094;2023-02-23T14:14:38;28.27;;;17.27;;
11685;SDS011;5899;51.282;6.094;2023-02-23T14:17:09;27.90;;;16.27;;
11685;SDS011;5899;51.282;6.094;2023-02-23T14:19:39;29.08;;;16.60;;
11685;SDS011;5899;51.282;6.094;2023-02-23T14:22:09;25.93;;;16.27;;
11685;SDS011;5899;51.282;6.094;2023-02-23T14:24:37;27.67;;;17.00;;
11685;SDS011;5899;51.282;6.094;2023-02-23T14:27:16;28.23;;;15.90;;
11685;SDS011;5899;51.282;6.094;2023-02-23T14:32:27;23.35;;;14.43;;
11685;SDS011;5899;51.282;6.094;2023-02-23T14:34:55;25.35;;;14.85;;
11685;SDS011;5899;51.282;6.094;2023-02-23T14:37:24;27.23;;;15.57;;
11685;SDS011;5899;51.282;6.094;2023-02-23T14:39:52;25.92;;;15.57;;
11685;SDS011;5899;51.282;6.094;2023-02-23T14:42:20;25.85;;;15.40;;
11685;SDS011;5899;51.282;6.094;2023-02-23T14:44:49;25.10;;;14.85;;
11685;SDS011;5899;51.282;6.094;2023-02-23T14:47:17;21.90;;;12.23;;
11685;SDS011;5899;51.282;6.094;2023-02-23T14:49:45;22.83;;;13.88;;
11685;SDS011;5899;51.282;6.094;2023-02-23T14:52:16;25.67;;;15.50;;
11685;SDS011;5899;51.282;6.094;2023-02-23T14:54:46;22.13;;;13.70;;
11685;SDS011;5899;51.282;6.094;2023-02-23T14:57:17;21.27;;;13.32;;
11685;SDS011;5899;51.282;6.094;2023-02-23T14:59:44;19.08;;;12.90;;
11685;SDS011;5899;51.282;6.094;2023-02-23T15:02:17;21.35;;;13.80;;
11685;SDS011;5899;51.282;6.094;2023-02-23T15:04:44;18.83;;;12.20;;
11685;SDS011;5899;51.282;6.094;2023-02-23T15:10:11;18.35;;;11.65;;
11685;SDS011;5899;51.282;6.094;2023-02-23T15:12:40;18.73;;;11.48;;
11685;SDS011;5899;51.282;6.094;2023-02-23T15:15:11;19.70;;;12.27;;
11685;SDS011;5899;51.282;6.094;2023-02-23T15:17:43;19.38;;;11.98;;
11685;SDS011;5899;51.282;6.094;2023-02-23T15:20:12;18.20;;;12.18;;
11685;SDS011;5899;51.282;6.094;2023-02-23T15:22:42;19.33;;;12.18;;
11685;SDS011;5899;51.282;6.094;2023-02-23T15:25:14;21.15;;;12.60;;
11685;SDS011;5899;51.282;6.094;2023-02-23T15:27:44;18.55;;;12.30;;
11685;SDS011;5899;51.282;6.094;2023-02-23T15:30:18;18.27;;;12.60;;
11685;SDS011;5899;51.282;6.094;2023-02-23T15:32:45;18.13;;;11.90;;
11685;SDS011;5899;51.282;6.094;2023-02-23T15:35:12;18.73;;;11.23;;